KMKG/MKG METAR and TAF weather

Enter ICAO airport designator
Station Type Date Time Source
KMKG METAR 2018/12/15 02:02 UTC NOAA

KMKG 150202Z 00000KT 1/4SM R32/1000FT FG VV002 01/00 A3022 RMK AO2 TWR VIS 1/2 T00110000


Station Type Date Time Source
KMKG Decoded METAR 2018/12/15 02:02 UTC NOAA

MUSKEGON COUNTY AIRPORT, MI, United States (KMKG) 43-10N 086-14W 191M
Dec 14, 2018 - 09:02 PM EST / 2018.12.15 0202 UTC
Wind: Calm:0
Visibility: 1/4 mile(s):0
Sky conditions: obscured
Weather: fog
Temperature: 34.0 F (1.1 C)
Dew Point: 32.0 F (0.0 C)
Relative Humidity: 92%
Pressure (altimeter): 30.22 in. Hg (1023 hPa)
ob: KMKG 150202Z 00000KT 1/4SM R32/1000FT FG VV002 01/00 A3022 RMK AO2 TWR VIS 1/2 T00110000
cycle: 2

Station Type Date Time Source
KMKG TAF 2018/12/15 02:10 UTC NOAA

TAF
AMD KMKG 150208Z 1502/1524 VRB02KT 1/4SM FG VV002
FM151200 06002KT 2SM BR OVC009
FM151500 08007KT 5SM BR FEW250


Example: see airport list